createdAt,value
2017-08-24T00:00:49.588Z,20.26
2017-08-24T00:01:49.308Z,20.25
2017-08-24T00:02:49.534Z,20.21
2017-08-24T00:03:49.650Z,20.19
2017-08-24T00:04:49.600Z,20.14
2017-08-24T00:05:49.367Z,20.14
2017-08-24T00:06:49.670Z,20.18
2017-08-24T00:07:49.629Z,20.19
2017-08-24T00:08:49.607Z,20.26
2017-08-24T00:09:49.354Z,20.22
2017-08-24T00:10:49.599Z,20.21
2017-08-24T00:11:49.328Z,20.21
2017-08-24T00:12:49.313Z,20.19
2017-08-24T00:13:49.317Z,20.24
2017-08-24T00:14:49.296Z,20.19
2017-08-24T00:15:49.645Z,20.18
2017-08-24T00:16:49.600Z,20.16
2017-08-24T00:17:49.743Z,20.16
2017-08-24T00:18:49.616Z,20.06
2017-08-24T00:19:49.334Z,20.06
2017-08-24T00:20:49.649Z,20.06
2017-08-24T00:21:49.675Z,20.06
2017-08-24T00:22:49.623Z,20
2017-08-24T00:23:49.392Z,20.03
2017-08-24T00:24:49.661Z,20.11
2017-08-24T00:25:49.417Z,20.03
2017-08-24T00:26:49.404Z,20.06
2017-08-24T00:27:49.368Z,20.06
2017-08-24T00:28:52.977Z,20.04
2017-08-24T00:29:49.680Z,20.1
2017-08-24T00:30:49.661Z,20
2017-08-24T00:31:49.361Z,20.1
2017-08-24T00:32:49.357Z,20.04
2017-08-24T00:33:49.371Z,20
2017-08-24T00:34:49.362Z,20.02
2017-08-24T00:35:49.089Z,20.03
2017-08-24T00:36:49.706Z,20
2017-08-24T00:37:49.655Z,19.89
2017-08-24T00:38:49.348Z,19.82
2017-08-24T00:39:49.469Z,19.88
2017-08-24T00:40:49.086Z,19.85
2017-08-24T00:41:49.671Z,19.82
2017-08-24T00:42:49.747Z,19.81
2017-08-24T00:43:49.682Z,19.85
2017-08-24T00:44:49.694Z,19.79
2017-08-24T00:45:49.720Z,19.84
2017-08-24T00:46:49.382Z,19.84
2017-08-24T00:47:49.733Z,19.81
2017-08-24T00:48:49.717Z,19.79
2017-08-24T00:49:49.475Z,19.88
2017-08-24T00:50:49.759Z,19.79
2017-08-24T00:51:49.724Z,19.71
2017-08-24T00:52:49.717Z,19.76
2017-08-24T00:53:49.731Z,19.84
2017-08-24T00:54:49.400Z,19.76
2017-08-24T00:55:49.483Z,19.82
2017-08-24T00:56:49.792Z,19.88
2017-08-24T00:57:49.855Z,19.82
2017-08-24T00:58:49.511Z,19.77
2017-08-24T00:59:49.696Z,19.84
2017-08-24T01:00:49.743Z,19.81
2017-08-24T01:01:49.435Z,19.86
2017-08-24T01:02:49.102Z,19.85
2017-08-24T01:03:49.085Z,19.84
2017-08-24T01:04:49.478Z,19.81
2017-08-24T01:05:49.731Z,19.85
2017-08-24T01:06:49.475Z,19.85
2017-08-24T01:07:49.430Z,19.82
2017-08-24T01:08:49.451Z,19.74
2017-08-24T01:09:49.470Z,19.76
2017-08-24T01:10:49.785Z,19.76
2017-08-24T01:11:49.523Z,19.77
2017-08-24T01:12:49.751Z,19.79
2017-08-24T01:13:49.854Z,19.84
2017-08-24T01:14:52.570Z,19.77
2017-08-24T01:15:49.456Z,19.79
2017-08-24T01:16:49.164Z,19.81
2017-08-24T01:17:49.432Z,19.7
2017-08-24T01:18:49.820Z,19.76
2017-08-24T01:19:49.745Z,19.7
2017-08-24T01:20:49.475Z,19.71
2017-08-24T01:21:49.495Z,19.81
2017-08-24T01:22:49.727Z,19.73
2017-08-24T01:23:49.738Z,19.71
2017-08-24T01:24:49.749Z,19.69
2017-08-24T01:25:49.815Z,19.71
2017-08-24T01:26:49.492Z,19.7
2017-08-24T01:27:49.830Z,19.69
2017-08-24T01:28:49.853Z,19.69
2017-08-24T01:29:50.856Z,19.64
2017-08-24T01:30:49.516Z,19.63
2017-08-24T01:31:49.822Z,19.59
2017-08-24T01:32:49.818Z,19.69
2017-08-24T01:33:49.504Z,19.73
2017-08-24T01:34:49.814Z,19.7
2017-08-24T01:35:49.770Z,19.71
2017-08-24T01:36:49.446Z,19.76
2017-08-24T01:37:49.509Z,19.74
2017-08-24T01:38:49.809Z,19.74
2017-08-24T01:39:49.493Z,19.76
2017-08-24T01:40:49.775Z,19.81
2017-08-24T01:41:50.171Z,19.82
2017-08-24T01:42:49.868Z,19.84
2017-08-24T01:43:50.373Z,19.74
2017-08-24T01:44:50.121Z,19.71
2017-08-24T01:45:49.507Z,19.67
2017-08-24T01:46:49.811Z,19.71
2017-08-24T01:47:49.482Z,19.71
2017-08-24T01:48:49.896Z,19.74
2017-08-24T01:49:49.820Z,19.73
2017-08-24T01:50:49.761Z,19.58
2017-08-24T01:51:49.869Z,19.54
2017-08-24T01:52:49.663Z,19.58
2017-08-24T01:53:49.695Z,19.52
2017-08-24T01:54:49.637Z,19.44
2017-08-24T01:55:50.071Z,19.49
2017-08-24T01:56:49.797Z,19.31
2017-08-24T01:57:49.870Z,19.33
2017-08-24T01:58:49.553Z,19.34
2017-08-24T01:59:51.619Z,19.36
2017-08-24T02:00:49.517Z,19.24
2017-08-24T02:01:49.834Z,19.21
2017-08-24T02:02:49.611Z,19.22
2017-08-24T02:03:49.845Z,19.22
2017-08-24T02:04:49.868Z,19.22
2017-08-24T02:05:49.241Z,19.26
2017-08-24T02:06:49.840Z,19.19
2017-08-24T02:07:49.568Z,19.24
2017-08-24T02:08:49.690Z,19.26
2017-08-24T02:09:49.510Z,19.36
2017-08-24T02:10:49.527Z,19.36
2017-08-24T02:11:49.916Z,19.33
2017-08-24T02:12:49.969Z,19.29
2017-08-24T02:13:49.880Z,19.29
2017-08-24T02:14:49.878Z,19.34
2017-08-24T02:15:49.902Z,19.31
2017-08-24T02:16:49.530Z,19.33
2017-08-24T02:17:49.901Z,19.31
2017-08-24T02:18:49.865Z,19.24
2017-08-24T02:19:49.879Z,19.3
2017-08-24T02:20:49.881Z,19.26
2017-08-24T02:21:49.239Z,19.24
2017-08-24T02:22:49.881Z,19.09
2017-08-24T02:23:49.278Z,19.19
2017-08-24T02:24:49.577Z,19.12
2017-08-24T02:25:49.910Z,19.11
2017-08-24T02:26:49.903Z,19.14
2017-08-24T02:27:49.937Z,19.09
2017-08-24T02:28:49.886Z,19.09
2017-08-24T02:29:49.607Z,19.12
2017-08-24T02:30:49.340Z,19.18
2017-08-24T02:31:49.902Z,19.19
2017-08-24T02:32:49.280Z,19.16
2017-08-24T02:33:49.275Z,19.22
2017-08-24T02:34:49.656Z,19.21
2017-08-24T02:35:49.316Z,19.26
2017-08-24T02:36:49.899Z,19.21
2017-08-24T02:37:49.891Z,19.21
2017-08-24T02:38:49.335Z,19.29
2017-08-24T02:39:49.945Z,19.26
2017-08-24T02:40:49.954Z,19.26
2017-08-24T02:41:49.317Z,19.22
2017-08-24T02:42:49.899Z,19.26
2017-08-24T02:43:49.836Z,19.26
2017-08-24T02:44:49.541Z,19.24
2017-08-24T02:45:49.838Z,19.21
2017-08-24T02:46:49.845Z,19.24
2017-08-24T02:47:49.544Z,19.26
2017-08-24T02:48:49.842Z,19.22
2017-08-24T02:49:49.841Z,19.22
2017-08-24T02:50:49.864Z,19.18
2017-08-24T02:51:49.561Z,19.21
2017-08-24T02:52:49.549Z,19.16
2017-08-24T02:53:49.849Z,19.11
2017-08-24T02:54:49.883Z,19.08
2017-08-24T02:55:49.849Z,19.07
2017-08-24T02:56:49.850Z,19.09
2017-08-24T02:57:49.557Z,19.07
2017-08-24T02:58:49.555Z,19.07
2017-08-24T02:59:49.576Z,19.07
2017-08-24T03:00:54.661Z,19.04
2017-08-24T03:01:49.558Z,19.11
2017-08-24T03:02:49.866Z,19.08
2017-08-24T03:03:49.560Z,19.02
2017-08-24T03:04:49.868Z,19.14
2017-08-24T03:05:49.572Z,19.14
2017-08-24T03:06:49.573Z,19.16
2017-08-24T03:07:49.876Z,19.12
2017-08-24T03:08:49.871Z,19.07
2017-08-24T03:09:49.579Z,19.09
2017-08-24T03:10:49.873Z,19
2017-08-24T03:11:49.876Z,19
2017-08-24T03:12:49.576Z,19
2017-08-24T03:13:49.581Z,19.02
2017-08-24T03:14:49.895Z,19.02
2017-08-24T03:15:49.883Z,18.95
2017-08-24T03:16:49.583Z,18.9
2017-08-24T03:17:49.896Z,18.88
2017-08-24T03:18:49.887Z,18.81
2017-08-24T03:19:49.900Z,18.83
2017-08-24T03:20:49.892Z,18.83
2017-08-24T03:21:49.892Z,18.8
2017-08-24T03:22:49.897Z,18.84
2017-08-24T03:23:49.889Z,18.71
2017-08-24T03:24:49.596Z,18.7
2017-08-24T03:25:49.894Z,18.7
2017-08-24T03:26:49.896Z,18.59
2017-08-24T03:27:49.602Z,18.55
2017-08-24T03:28:49.901Z,18.53
2017-08-24T03:29:49.902Z,18.55
2017-08-24T03:30:51.156Z,18.59
2017-08-24T03:31:49.899Z,18.65
2017-08-24T03:32:49.914Z,18.71
2017-08-24T03:33:49.917Z,18.8
2017-08-24T03:34:49.614Z,18.88
2017-08-24T03:35:49.913Z,18.84
2017-08-24T03:36:49.915Z,18.89
2017-08-24T03:37:49.921Z,18.92
2017-08-24T03:38:50.030Z,18.88
2017-08-24T03:39:49.618Z,18.84
2017-08-24T03:40:49.930Z,18.84
2017-08-24T03:41:49.625Z,18.86
2017-08-24T03:42:49.922Z,18.84
2017-08-24T03:43:49.622Z,18.9
2017-08-24T03:44:49.638Z,18.86
2017-08-24T03:45:49.923Z,18.83
2017-08-24T03:46:49.929Z,18.77
2017-08-24T03:47:49.924Z,18.73
2017-08-24T03:48:49.627Z,18.81
2017-08-24T03:49:49.647Z,18.75
2017-08-24T03:50:49.633Z,18.74
2017-08-24T03:51:49.936Z,18.78
2017-08-24T03:52:49.637Z,18.7
2017-08-24T03:53:49.635Z,18.74
2017-08-24T03:54:49.953Z,18.8
2017-08-24T03:55:49.939Z,18.77
2017-08-24T03:56:49.642Z,18.88
2017-08-24T03:57:49.950Z,18.81
2017-08-24T03:58:49.941Z,18.86
2017-08-24T03:59:49.657Z,18.86
2017-08-24T04:00:49.953Z,18.92
2017-08-24T04:01:49.656Z,18.84
2017-08-24T04:02:49.663Z,18.88
2017-08-24T04:03:49.971Z,18.89
2017-08-24T04:04:49.956Z,18.93
2017-08-24T04:05:49.660Z,18.99
2017-08-24T04:06:49.656Z,18.95
2017-08-24T04:07:49.963Z,18.96
2017-08-24T04:08:49.972Z,18.98
2017-08-24T04:09:49.666Z,18.96
2017-08-24T04:10:49.970Z,19
2017-08-24T04:11:49.983Z,19
2017-08-24T04:12:49.978Z,19.02
2017-08-24T04:13:49.981Z,19.04
2017-08-24T04:14:49.983Z,19.09
2017-08-24T04:15:49.377Z,19.07
2017-08-24T04:16:51.584Z,19
2017-08-24T04:17:50.230Z,19
2017-08-24T04:18:49.688Z,18.99
2017-08-24T04:19:49.981Z,19.02
2017-08-24T04:20:49.984Z,18.93
2017-08-24T04:21:49.985Z,18.92
2017-08-24T04:22:50.023Z,18.84
2017-08-24T04:23:49.987Z,18.84
2017-08-24T04:24:50.013Z,18.83
2017-08-24T04:25:50.011Z,18.86
2017-08-24T04:26:49.991Z,18.98
2017-08-24T04:27:49.390Z,18.93
2017-08-24T04:28:50.012Z,18.98
2017-08-24T04:29:49.709Z,18.93
2017-08-24T04:30:49.703Z,18.98
2017-08-24T04:31:52.067Z,18.95
2017-08-24T04:32:50.008Z,18.83
2017-08-24T04:33:49.704Z,18.84
2017-08-24T04:34:49.709Z,18.88
2017-08-24T04:35:50.006Z,18.81
2017-08-24T04:36:50.015Z,18.88
2017-08-24T04:37:49.719Z,18.88
2017-08-24T04:38:49.721Z,18.89
2017-08-24T04:39:50.029Z,18.89
2017-08-24T04:40:49.719Z,18.88
2017-08-24T04:41:49.725Z,18.84
2017-08-24T04:42:49.726Z,18.84
2017-08-24T04:43:50.018Z,18.84
2017-08-24T04:44:49.747Z,18.93
2017-08-24T04:45:50.024Z,18.95
2017-08-24T04:46:50.025Z,18.92
2017-08-24T04:47:50.032Z,18.95
2017-08-24T04:48:49.731Z,18.96
2017-08-24T04:49:50.055Z,19.04
2017-08-24T04:50:50.039Z,19.09
2017-08-24T04:51:49.758Z,19.14
2017-08-24T04:52:49.735Z,19.14
2017-08-24T04:53:50.038Z,19.12
2017-08-24T04:54:49.440Z,19.09
2017-08-24T04:55:49.739Z,19.19
2017-08-24T04:56:50.060Z,19.18
2017-08-24T04:57:49.747Z,19.29
2017-08-24T04:58:50.063Z,19.22
2017-08-24T04:59:50.062Z,19.24
2017-08-24T05:00:49.758Z,19.34
2017-08-24T05:01:55.817Z,19.33
2017-08-24T05:02:49.761Z,19.45
2017-08-24T05:03:50.069Z,19.47
2017-08-24T05:04:50.094Z,19.62
2017-08-24T05:05:50.083Z,19.69
2017-08-24T05:06:49.763Z,19.84
2017-08-24T05:07:50.082Z,19.88
2017-08-24T05:08:50.086Z,19.86
2017-08-24T05:09:50.089Z,19.94
2017-08-24T05:10:50.093Z,20
2017-08-24T05:11:49.786Z,20.02
2017-08-24T05:12:49.796Z,20
2017-08-24T05:13:50.091Z,20.09
2017-08-24T05:14:50.099Z,20.16
2017-08-24T05:15:50.095Z,20.06
2017-08-24T05:16:49.790Z,20.19
2017-08-24T05:17:50.102Z,20.26
2017-08-24T05:18:49.796Z,20.39
2017-08-24T05:19:50.122Z,20.47
2017-08-24T05:20:49.799Z,20.65
2017-08-24T05:21:50.107Z,20.69
2017-08-24T05:22:50.112Z,20.72
2017-08-24T05:23:49.829Z,20.85
2017-08-24T05:24:49.814Z,20.99
2017-08-24T05:25:50.114Z,21.07
2017-08-24T05:26:50.124Z,21.05
2017-08-24T05:27:49.819Z,21.09
2017-08-24T05:28:49.831Z,21.11
2017-08-24T05:29:50.133Z,21.03
2017-08-24T05:30:50.138Z,21.05
2017-08-24T05:31:49.850Z,21.03
2017-08-24T05:32:52.109Z,20.96
2017-08-24T05:33:50.141Z,20.92
2017-08-24T05:34:50.168Z,20.95
2017-08-24T05:35:50.162Z,20.95
2017-08-24T05:36:50.160Z,20.93
2017-08-24T05:37:50.154Z,21
2017-08-24T05:38:49.860Z,20.97
2017-08-24T05:39:49.861Z,21.07
2017-08-24T05:40:50.165Z,21.2
2017-08-24T05:41:50.166Z,21.35
2017-08-24T05:42:50.177Z,21.46
2017-08-24T05:43:50.181Z,21.57
2017-08-24T05:44:49.891Z,21.58
2017-08-24T05:45:49.590Z,21.69
2017-08-24T05:46:49.883Z,21.83
2017-08-24T05:47:50.187Z,21.92
2017-08-24T05:48:50.191Z,21.98
2017-08-24T05:49:49.910Z,22.13
2017-08-24T05:50:50.197Z,22.28
2017-08-24T05:51:49.899Z,22.48
2017-08-24T05:52:49.908Z,22.65
2017-08-24T05:53:50.228Z,22.75
2017-08-24T05:54:49.619Z,22.88
2017-08-24T05:55:49.917Z,23.06
2017-08-24T05:56:50.227Z,23.1
2017-08-24T05:57:49.948Z,23.31
2017-08-24T05:58:50.232Z,23.4
2017-08-24T05:59:50.273Z,23.36
2017-08-24T06:00:50.241Z,23.31
2017-08-24T06:01:49.676Z,23.17
2017-08-24T06:02:51.500Z,22.91
2017-08-24T06:03:49.957Z,22.75
2017-08-24T06:04:49.978Z,22.6
2017-08-24T06:05:50.268Z,22.48
2017-08-24T06:06:49.989Z,22.36
2017-08-24T06:07:49.689Z,22.14
2017-08-24T06:08:49.991Z,22.25
2017-08-24T06:09:50.297Z,22.25
2017-08-24T06:10:50.003Z,22.23
2017-08-24T06:11:50.294Z,22.28
2017-08-24T06:12:49.994Z,22.11
2017-08-24T06:13:50.304Z,22.26
2017-08-24T06:14:50.035Z,22.29
2017-08-24T06:15:50.314Z,22.32
2017-08-24T06:16:50.015Z,22.29
2017-08-24T06:17:50.315Z,22.35
2017-08-24T06:18:50.020Z,22.44
2017-08-24T06:19:50.343Z,22.41
2017-08-24T06:20:50.031Z,22.6
2017-08-24T06:21:50.031Z,22.8
2017-08-24T06:22:50.047Z,22.98
2017-08-24T06:23:50.346Z,23.28
2017-08-24T06:24:50.369Z,23.43
2017-08-24T06:25:50.354Z,23.59
2017-08-24T06:26:50.063Z,23.92
2017-08-24T06:27:50.064Z,24.06
2017-08-24T06:28:50.369Z,24.32
2017-08-24T06:29:50.081Z,24.5
2017-08-24T06:30:50.381Z,24.66
2017-08-24T06:31:50.380Z,24.78
2017-08-24T06:32:53.743Z,24.8
2017-08-24T06:33:50.400Z,24.96
2017-08-24T06:34:50.102Z,25.08
2017-08-24T06:35:50.127Z,25.21
2017-08-24T06:36:50.411Z,25.38
2017-08-24T06:37:50.410Z,25.62
2017-08-24T06:38:50.423Z,25.8
2017-08-24T06:39:50.466Z,25.96
2017-08-24T06:40:50.430Z,25.87
2017-08-24T06:41:50.437Z,25.93
2017-08-24T06:42:50.442Z,26.06
2017-08-24T06:43:50.446Z,26.16
2017-08-24T06:44:50.465Z,26.25
2017-08-24T06:45:50.454Z,26.33
2017-08-24T06:46:50.469Z,26.41
2017-08-24T06:47:50.479Z,26.38
2017-08-24T06:48:50.477Z,26.34
2017-08-24T06:49:50.492Z,26.22
2017-08-24T06:50:50.201Z,26.23
2017-08-24T06:51:50.188Z,26.23
2017-08-24T06:52:50.497Z,26.37
2017-08-24T06:53:50.524Z,26.26
2017-08-24T06:54:50.523Z,26.07
2017-08-24T06:55:50.523Z,25.99
2017-08-24T06:56:50.525Z,25.98
2017-08-24T06:57:50.533Z,25.95
2017-08-24T06:58:50.538Z,25.91
2017-08-24T06:59:50.552Z,25.96
2017-08-24T07:00:50.265Z,26.28
2017-08-24T07:01:50.560Z,26.43
2017-08-24T07:02:49.960Z,26.53
2017-08-24T07:03:50.265Z,26.71
2017-08-24T07:04:50.274Z,26.85
2017-08-24T07:05:50.282Z,26.96
2017-08-24T07:06:50.587Z,26.74
2017-08-24T07:07:50.588Z,26.52
2017-08-24T07:08:50.596Z,26.52
2017-08-24T07:09:50.605Z,26.44
2017-08-24T07:10:50.613Z,26.43
2017-08-24T07:11:50.316Z,26.37
2017-08-24T07:12:50.620Z,26.38
2017-08-24T07:13:50.634Z,26.37
2017-08-24T07:14:50.664Z,26.34
2017-08-24T07:15:50.645Z,26.31
2017-08-24T07:16:50.645Z,26.45
2017-08-24T07:17:50.347Z,26.55
2017-08-24T07:18:50.354Z,26.7
2017-08-24T07:19:50.363Z,26.81
2017-08-24T07:20:50.671Z,27.08
2017-08-24T07:21:50.673Z,27.2
2017-08-24T07:22:50.690Z,27.37
2017-08-24T07:23:50.696Z,27.58
2017-08-24T07:24:50.390Z,27.71
2017-08-24T07:25:50.698Z,27.78
2017-08-24T07:26:50.708Z,27.82
2017-08-24T07:27:50.710Z,27.83
2017-08-24T07:28:50.725Z,28.02
2017-08-24T07:29:50.731Z,27.95
2017-08-24T07:30:50.735Z,27.73
2017-08-24T07:31:50.743Z,27.54
2017-08-24T07:32:50.747Z,27.37
2017-08-24T07:33:55.055Z,27.07
2017-08-24T07:34:50.759Z,26.96
2017-08-24T07:35:50.527Z,26.85
2017-08-24T07:36:50.792Z,26.7
2017-08-24T07:37:50.804Z,26.53
2017-08-24T07:38:50.795Z,26.41
2017-08-24T07:39:50.794Z,26.25
2017-08-24T07:40:50.796Z,26.18
2017-08-24T07:41:50.825Z,26.07
2017-08-24T07:42:50.808Z,25.91
2017-08-24T07:43:50.510Z,25.93
2017-08-24T07:44:50.815Z,25.93
2017-08-24T07:45:50.831Z,25.95
2017-08-24T07:46:50.837Z,25.95
2017-08-24T07:47:50.834Z,25.91
2017-08-24T07:48:51.056Z,25.77
2017-08-24T07:49:50.852Z,25.59
2017-08-24T07:50:50.867Z,25.33
2017-08-24T07:51:50.561Z,25.21
2017-08-24T07:52:50.860Z,25.03
2017-08-24T07:53:50.869Z,24.8
2017-08-24T07:54:50.716Z,24.84
2017-08-24T07:55:50.393Z,24.81
2017-08-24T07:56:50.785Z,24.88
2017-08-24T07:57:51.250Z,24.96
2017-08-24T07:58:50.650Z,25.11
2017-08-24T07:59:50.657Z,25.18
2017-08-24T08:00:51.068Z,25.41
2017-08-24T08:01:50.492Z,25.72
2017-08-24T08:02:50.671Z,26.25
2017-08-24T08:03:50.386Z,26.71
2017-08-24T08:04:50.971Z,27.25
2017-08-24T08:05:51.028Z,27.54
2017-08-24T08:06:50.963Z,27.85
2017-08-24T08:07:50.695Z,28.1
2017-08-24T08:08:50.750Z,28.3
2017-08-24T08:09:51.070Z,28.88
2017-08-24T08:10:51.212Z,29.12
2017-08-24T08:11:51.089Z,29.42
2017-08-24T08:12:50.783Z,29.59
2017-08-24T08:13:50.766Z,29.32
2017-08-24T08:14:50.805Z,29.13
2017-08-24T08:15:51.070Z,28.7
2017-08-24T08:16:51.204Z,28.51
2017-08-24T08:17:50.886Z,28.49
2017-08-24T08:18:50.980Z,28.76
2017-08-24T08:19:51.119Z,28.81
2017-08-24T08:20:50.969Z,28.89
2017-08-24T08:21:51.311Z,29.05
2017-08-24T08:22:50.887Z,29.16
2017-08-24T08:23:50.914Z,29.66
2017-08-24T08:24:50.869Z,30
2017-08-24T08:25:50.829Z,30.09
2017-08-24T08:26:50.879Z,30.12
2017-08-24T08:27:51.177Z,29.75
2017-08-24T08:28:50.987Z,29.39
2017-08-24T08:29:50.956Z,28.94
2017-08-24T08:30:51.222Z,28.44
2017-08-24T08:31:51.182Z,28.17
2017-08-24T08:32:50.884Z,28.12
2017-08-24T08:33:50.942Z,28.33
2017-08-24T08:34:55.618Z,28.37
2017-08-24T08:35:51.333Z,28.39
2017-08-24T08:36:51.266Z,28.33
2017-08-24T08:37:50.966Z,28.38
2017-08-24T08:38:50.988Z,28.32
2017-08-24T08:39:51.362Z,28.32
2017-08-24T08:40:51.206Z,28
2017-08-24T08:41:50.973Z,27.82
2017-08-24T08:42:50.957Z,27.48
2017-08-24T08:43:50.603Z,27.25
2017-08-24T08:44:50.754Z,26.93
2017-08-24T08:45:51.455Z,26.88
2017-08-24T08:46:51.394Z,26.75
2017-08-24T08:47:51.021Z,26.62
2017-08-24T08:48:51.335Z,26.56
2017-08-24T08:49:51.096Z,26.53
2017-08-24T08:50:51.414Z,26.56
2017-08-24T08:51:51.466Z,26.62
2017-08-24T08:52:51.351Z,26.59
2017-08-24T08:53:51.838Z,26.6
2017-08-24T08:54:50.711Z,26.58
2017-08-24T08:55:51.418Z,26.68
2017-08-24T08:56:51.039Z,26.74
2017-08-24T08:57:51.426Z,26.81
2017-08-24T08:58:51.145Z,26.85
2017-08-24T08:59:51.135Z,26.92
2017-08-24T09:00:51.460Z,26.74
2017-08-24T09:01:51.070Z,26.7
2017-08-24T09:02:51.400Z,26.56
2017-08-24T09:03:51.264Z,26.68
2017-08-24T09:04:56.641Z,26.78
2017-08-24T09:05:50.878Z,26.9
2017-08-24T09:06:51.398Z,27
2017-08-24T09:07:51.702Z,27.21
2017-08-24T09:08:51.521Z,27.44
2017-08-24T09:09:51.558Z,27.58
2017-08-24T09:10:51.680Z,27.65
2017-08-24T09:11:51.070Z,27.7
2017-08-24T09:12:51.847Z,27.82
2017-08-24T09:13:51.422Z,28.07
2017-08-24T09:14:51.791Z,28.11
2017-08-24T09:15:51.996Z,28.07
2017-08-24T09:16:51.709Z,28.07
2017-08-24T09:17:51.054Z,27.8
2017-08-24T09:18:51.601Z,27.98
2017-08-24T09:19:51.494Z,28.05
2017-08-24T09:20:51.405Z,28.19
2017-08-24T09:21:51.380Z,28.15
2017-08-24T09:22:51.224Z,28.26
2017-08-24T09:23:50.902Z,28.3
2017-08-24T09:24:51.514Z,28.08
2017-08-24T09:25:51.221Z,27.9
2017-08-24T09:26:51.734Z,27.82
2017-08-24T09:27:51.568Z,27.95
2017-08-24T09:28:51.324Z,28.04
2017-08-24T09:29:51.288Z,28.2
2017-08-24T09:30:51.184Z,28.07
2017-08-24T09:31:51.513Z,28
2017-08-24T09:32:51.517Z,27.82
2017-08-24T09:33:51.510Z,27.75
2017-08-24T09:34:50.899Z,27.8
2017-08-24T09:35:52.248Z,27.86
2017-08-24T09:36:51.234Z,27.83
2017-08-24T09:37:51.235Z,27.93
2017-08-24T09:38:50.939Z,27.93
2017-08-24T09:39:51.553Z,27.89
2017-08-24T09:40:51.567Z,27.89
2017-08-24T09:41:51.614Z,27.86
2017-08-24T09:42:51.274Z,27.92
2017-08-24T09:43:51.308Z,27.65
2017-08-24T09:44:51.617Z,27.52
2017-08-24T09:45:51.316Z,27.48
2017-08-24T09:46:51.619Z,27.42
2017-08-24T09:47:51.001Z,27.29
2017-08-24T09:48:51.326Z,27.27
2017-08-24T09:49:51.616Z,27.29
2017-08-24T09:50:52.098Z,27.52
2017-08-24T09:51:51.623Z,27.73
2017-08-24T09:52:51.632Z,27.85
2017-08-24T09:53:51.327Z,27.85
2017-08-24T09:54:51.664Z,28
2017-08-24T09:55:51.658Z,28.12
2017-08-24T09:56:51.342Z,28.3
2017-08-24T09:57:51.662Z,28.45
2017-08-24T09:58:51.664Z,28.66
2017-08-24T09:59:51.368Z,28.57
2017-08-24T10:00:51.370Z,28.62
2017-08-24T10:01:51.370Z,28.6
2017-08-24T10:02:51.072Z,28.52
2017-08-24T10:03:51.717Z,28.56
2017-08-24T10:04:51.709Z,28.48
2017-08-24T10:05:51.709Z,28.3
2017-08-24T10:06:51.404Z,28.25
2017-08-24T10:07:51.411Z,28.02
2017-08-24T10:08:51.730Z,28.01
2017-08-24T10:09:51.428Z,27.9
2017-08-24T10:10:51.744Z,27.77
2017-08-24T10:11:51.768Z,27.58
2017-08-24T10:12:51.793Z,27.6
2017-08-24T10:13:51.757Z,27.65
2017-08-24T10:14:51.778Z,27.64
2017-08-24T10:15:51.769Z,27.59
2017-08-24T10:16:51.161Z,27.64
2017-08-24T10:17:51.783Z,27.54
2017-08-24T10:18:51.169Z,27.6
2017-08-24T10:19:51.490Z,27.63
2017-08-24T10:20:51.490Z,27.6
2017-08-24T10:21:51.189Z,27.73
2017-08-24T10:22:51.568Z,27.71
2017-08-24T10:23:51.822Z,27.74
2017-08-24T10:24:51.527Z,27.68
2017-08-24T10:25:51.522Z,27.6
2017-08-24T10:26:51.245Z,27.51
2017-08-24T10:27:51.535Z,27.36
2017-08-24T10:28:51.719Z,27.4
2017-08-24T10:29:51.935Z,27.44
2017-08-24T10:30:51.614Z,27.63
2017-08-24T10:31:51.558Z,27.49
2017-08-24T10:32:51.576Z,27.45
2017-08-24T10:33:51.578Z,27.33
2017-08-24T10:34:51.887Z,27.26
2017-08-24T10:35:51.274Z,27.08
2017-08-24T10:36:52.761Z,26.99
2017-08-24T10:37:51.321Z,27.07
2017-08-24T10:38:51.918Z,27
2017-08-24T10:39:51.611Z,27.03
2017-08-24T10:40:51.933Z,27.07
2017-08-24T10:41:51.618Z,26.99
2017-08-24T10:42:51.703Z,26.89
2017-08-24T10:43:51.629Z,26.78
2017-08-24T10:44:51.944Z,26.71
2017-08-24T10:45:51.949Z,26.68
2017-08-24T10:46:51.850Z,26.7
2017-08-24T10:47:52.028Z,26.75
2017-08-24T10:48:51.655Z,26.8
2017-08-24T10:49:51.671Z,26.84
2017-08-24T10:50:51.977Z,26.85
2017-08-24T10:51:51.722Z,26.84
2017-08-24T10:52:51.816Z,26.83
2017-08-24T10:53:52.038Z,26.92
2017-08-24T10:54:51.406Z,26.93
2017-08-24T10:55:51.699Z,26.99
2017-08-24T10:56:52.011Z,27
2017-08-24T10:57:51.704Z,27.12
2017-08-24T10:58:52.044Z,27.11
2017-08-24T10:59:51.720Z,27.17
2017-08-24T11:00:52.037Z,27.25
2017-08-24T11:01:52.062Z,27.2
2017-08-24T11:02:52.050Z,27.18
2017-08-24T11:03:52.075Z,27.11
2017-08-24T11:04:51.745Z,27.08
2017-08-24T11:05:51.744Z,27.21
2017-08-24T11:06:55.778Z,27.21
2017-08-24T11:07:51.453Z,27.25
2017-08-24T11:08:51.461Z,27.25
2017-08-24T11:09:51.779Z,27.33
2017-08-24T11:10:52.131Z,27.37
2017-08-24T11:11:52.161Z,27.36
2017-08-24T11:12:52.121Z,27.36
2017-08-24T11:13:51.802Z,27.4
2017-08-24T11:14:51.803Z,27.44
2017-08-24T11:15:52.149Z,27.36
2017-08-24T11:16:51.805Z,27.27
2017-08-24T11:17:51.827Z,27.27
2017-08-24T11:18:51.829Z,27.26
2017-08-24T11:19:51.541Z,27.27
2017-08-24T11:20:51.890Z,27.27
2017-08-24T11:21:52.188Z,27.49
2017-08-24T11:22:52.250Z,27.52
2017-08-24T11:23:51.847Z,27.58
2017-08-24T11:24:51.907Z,27.48
2017-08-24T11:25:52.188Z,27.4
2017-08-24T11:26:52.211Z,27.37
2017-08-24T11:27:51.923Z,27.39
2017-08-24T11:28:51.907Z,27.52
2017-08-24T11:29:51.890Z,27.58
2017-08-24T11:30:51.886Z,27.73
2017-08-24T11:31:51.940Z,27.86
2017-08-24T11:32:51.952Z,27.9
2017-08-24T11:33:52.225Z,27.96
2017-08-24T11:34:52.224Z,28.05
2017-08-24T11:35:52.234Z,28.1
2017-08-24T11:36:51.924Z,28.04
2017-08-24T11:37:52.254Z,28.08
2017-08-24T11:38:52.245Z,28.25
2017-08-24T11:39:52.276Z,28.2
2017-08-24T11:40:51.630Z,28
2017-08-24T11:41:52.266Z,27.92
2017-08-24T11:42:51.953Z,27.92
2017-08-24T11:43:51.959Z,28.07
2017-08-24T11:44:52.337Z,28.1
2017-08-24T11:45:51.966Z,28
2017-08-24T11:46:52.365Z,28.05
2017-08-24T11:47:51.992Z,28
2017-08-24T11:48:52.307Z,28
2017-08-24T11:49:51.999Z,27.9
2017-08-24T11:50:52.142Z,27.89
2017-08-24T11:51:52.328Z,27.78
2017-08-24T11:52:52.354Z,27.83
2017-08-24T11:53:52.017Z,27.93
2017-08-24T11:54:51.712Z,27.96
2017-08-24T11:55:52.352Z,28.02
2017-08-24T11:56:52.363Z,28.08
2017-08-24T11:57:52.050Z,28.2
2017-08-24T11:58:52.046Z,28.22
2017-08-24T11:59:52.065Z,28.2
2017-08-24T12:00:52.486Z,28.3
2017-08-24T12:01:52.106Z,28.32
2017-08-24T12:02:52.112Z,28.42
2017-08-24T12:03:52.088Z,28.45
2017-08-24T12:04:51.773Z,28.44
2017-08-24T12:05:52.411Z,28.44
2017-08-24T12:06:52.406Z,28.44
2017-08-24T12:07:52.108Z,28.26
2017-08-24T12:08:52.637Z,28.26
2017-08-24T12:09:52.002Z,28.33
2017-08-24T12:10:52.147Z,28.23
2017-08-24T12:11:52.447Z,28.25
2017-08-24T12:12:51.825Z,28.47
2017-08-24T12:13:52.315Z,28.44
2017-08-24T12:14:52.509Z,28.42
2017-08-24T12:15:52.453Z,28.39
2017-08-24T12:16:52.482Z,28.32
2017-08-24T12:17:51.973Z,28.25
2017-08-24T12:18:52.187Z,28.44
2017-08-24T12:19:52.480Z,28.56
2017-08-24T12:20:52.180Z,28.63
2017-08-24T12:21:52.483Z,28.63
2017-08-24T12:22:52.490Z,28.64
2017-08-24T12:23:52.196Z,28.62
2017-08-24T12:24:51.915Z,28.52
2017-08-24T12:25:52.504Z,28.45
2017-08-24T12:26:52.572Z,28.64
2017-08-24T12:27:52.216Z,28.69
2017-08-24T12:28:52.263Z,28.93
2017-08-24T12:29:52.262Z,29.01
2017-08-24T12:30:52.238Z,29.05
2017-08-24T12:31:52.551Z,29.24
2017-08-24T12:32:52.294Z,29.39
2017-08-24T12:33:52.381Z,29.47
2017-08-24T12:34:52.558Z,29.51
2017-08-24T12:35:52.566Z,29.57
2017-08-24T12:36:52.271Z,29.61
2017-08-24T12:37:52.621Z,29.73
2017-08-24T12:38:52.289Z,29.78
2017-08-24T12:39:52.312Z,29.72
2017-08-24T12:40:52.598Z,29.71
2017-08-24T12:41:52.619Z,29.72
2017-08-24T12:42:52.613Z,29.63
2017-08-24T12:43:52.615Z,29.68
2017-08-24T12:44:52.328Z,29.75
2017-08-24T12:45:52.634Z,29.73
2017-08-24T12:53:30.307Z,29.1
2017-08-24T12:54:13.066Z,29.13
2017-08-24T12:55:13.814Z,29.01
2017-08-24T12:56:12.751Z,29.1
2017-08-24T12:57:13.064Z,29.2
2017-08-24T12:58:12.752Z,29.16
2017-08-24T12:59:13.075Z,29.19
2017-08-24T13:00:13.647Z,29.42
2017-08-24T13:01:13.088Z,29.49
2017-08-24T13:02:12.787Z,29.61
2017-08-24T13:03:13.098Z,29.78
2017-08-24T13:04:13.182Z,29.81